createdAt,value
2022-09-15T00:01:49.784Z,67.61
2022-09-15T00:04:21.546Z,67.72
2022-09-15T00:06:53.295Z,67.80
2022-09-15T00:09:25.114Z,67.85
2022-09-15T00:11:58.697Z,67.92
2022-09-15T00:14:30.406Z,67.96
2022-09-15T00:17:02.208Z,68.03
2022-09-15T00:19:34.012Z,68.26
2022-09-15T00:22:07.359Z,68.17
2022-09-15T00:24:39.371Z,68.30
2022-09-15T00:27:12.182Z,68.43
2022-09-15T00:29:44.210Z,68.50
2022-09-15T00:32:19.210Z,68.52
2022-09-15T00:34:52.322Z,68.73
2022-09-15T00:37:24.645Z,68.85
2022-09-15T00:39:56.712Z,68.70
2022-09-15T00:42:30.079Z,68.81
2022-09-15T00:45:03.363Z,68.88
2022-09-15T00:47:40.294Z,68.87
2022-09-15T00:50:15.342Z,68.75
2022-09-15T00:52:51.338Z,68.60
2022-09-15T00:55:27.624Z,68.64
2022-09-15T00:58:03.083Z,68.80
2022-09-15T01:00:36.874Z,69.14
2022-09-15T01:03:09.450Z,68.85
2022-09-15T01:05:46.230Z,68.90
2022-09-15T01:08:23.563Z,69.15
2022-09-15T01:10:55.313Z,69.27
2022-09-15T01:13:33.000Z,69.21
2022-09-15T01:16:12.575Z,69.30
2022-09-15T01:19:09.115Z,69.19
2022-09-15T01:21:46.728Z,69.18
2022-09-15T01:24:47.974Z,69.29
2022-09-15T01:27:41.709Z,69.38
2022-09-15T01:30:27.281Z,69.43
2022-09-15T01:33:14.104Z,69.56
2022-09-15T01:35:57.951Z,69.54
2022-09-15T01:38:40.700Z,69.42
2022-09-15T01:41:19.192Z,69.45
2022-09-15T01:43:56.855Z,69.44
2022-09-15T01:46:32.367Z,69.50
2022-09-15T01:49:06.200Z,69.54
2022-09-15T01:51:42.331Z,69.58
2022-09-15T01:54:16.033Z,69.67
2022-09-15T01:56:47.907Z,69.64
2022-09-15T01:59:19.616Z,69.71
2022-09-15T02:02:00.027Z,69.81
2022-09-15T02:04:38.289Z,69.65
2022-09-15T02:07:18.143Z,69.75
2022-09-15T02:09:56.963Z,69.90
2022-09-15T02:12:36.164Z,69.94
2022-09-15T02:15:12.091Z,69.81
2022-09-15T02:17:54.184Z,69.88
2022-09-15T02:20:34.392Z,69.96
2022-09-15T02:23:13.983Z,69.98
2022-09-15T02:25:51.702Z,70.24
2022-09-15T02:28:33.059Z,70.16
2022-09-15T02:31:08.257Z,70.17
2022-09-15T02:33:46.020Z,70.17
2022-09-15T02:36:20.053Z,70.23
2022-09-15T02:38:58.157Z,70.23
2022-09-15T02:41:30.145Z,70.27
2022-09-15T02:44:02.776Z,70.14
2022-09-15T02:46:34.556Z,70.33
2022-09-15T02:49:06.393Z,70.22
2022-09-15T02:51:38.125Z,70.35
2022-09-15T02:54:10.934Z,70.33
2022-09-15T02:56:43.573Z,70.27
2022-09-15T02:59:15.624Z,70.41
2022-09-15T03:01:47.410Z,70.38
2022-09-15T03:04:21.212Z,70.42
2022-09-15T03:06:52.948Z,70.34
2022-09-15T03:09:24.709Z,70.38
2022-09-15T03:11:56.745Z,70.37
2022-09-15T03:14:31.207Z,70.48
2022-09-15T03:17:03.108Z,70.55
2022-09-15T03:19:34.954Z,70.62
2022-09-15T03:22:07.219Z,70.56
2022-09-15T03:24:39.370Z,70.56
2022-09-15T03:27:11.126Z,70.63
2022-09-15T03:29:42.869Z,70.62
2022-09-15T03:32:14.632Z,70.73
2022-09-15T03:34:47.706Z,70.74
2022-09-15T03:37:19.402Z,70.96
2022-09-15T03:39:51.262Z,70.87
2022-09-15T03:42:42.968Z,70.86
2022-09-15T03:45:15.601Z,70.97
2022-09-15T03:47:47.386Z,70.97
2022-09-15T03:50:24.678Z,71.10
2022-09-15T03:52:58.822Z,71.14
2022-09-15T03:55:31.044Z,71.19
2022-09-15T03:58:02.769Z,71.07
2022-09-15T04:00:37.977Z,71.28
2022-09-15T04:03:10.680Z,71.25
2022-09-15T04:05:43.260Z,71.23
2022-09-15T04:08:15.591Z,71.25
2022-09-15T04:10:50.781Z,71.37
2022-09-15T04:13:26.667Z,71.25
2022-09-15T04:16:04.661Z,71.26
2022-09-15T04:18:36.983Z,71.21
2022-09-15T04:21:14.017Z,71.25
2022-09-15T04:23:46.643Z,71.29
2022-09-15T04:26:23.509Z,71.16
2022-09-15T04:28:55.256Z,71.42
2022-09-15T04:31:28.814Z,71.44
2022-09-15T04:34:00.614Z,71.49
2022-09-15T04:36:32.544Z,71.44
2022-09-15T04:39:06.123Z,71.44
2022-09-15T04:41:39.548Z,71.44
2022-09-15T04:44:11.285Z,71.38
2022-09-15T04:46:43.191Z,71.47
2022-09-15T04:49:15.008Z,71.40
2022-09-15T04:51:46.922Z,71.44
2022-09-15T04:54:18.601Z,71.53
2022-09-15T04:56:50.552Z,71.52
2022-09-15T04:59:22.222Z,71.52
2022-09-15T05:01:56.529Z,71.55
2022-09-15T05:04:29.151Z,71.60
2022-09-15T05:07:01.287Z,71.48
2022-09-15T05:09:33.577Z,71.43
2022-09-15T05:12:05.854Z,71.55
2022-09-15T05:14:38.333Z,71.51
2022-09-15T05:17:10.958Z,71.72
2022-09-15T05:19:42.754Z,71.55
2022-09-15T05:22:15.972Z,71.49
2022-09-15T05:24:47.722Z,71.37
2022-09-15T05:27:19.520Z,71.51
2022-09-15T05:30:04.323Z,71.59
2022-09-15T05:32:43.763Z,71.46
2022-09-15T05:35:15.651Z,71.43
2022-09-15T05:37:47.867Z,71.58
2022-09-15T05:40:22.832Z,71.60
2022-09-15T05:42:55.630Z,71.56
2022-09-15T05:45:27.833Z,71.58
2022-09-15T05:48:00.361Z,71.60
2022-09-15T05:50:32.996Z,71.81
2022-09-15T05:53:08.534Z,71.62
2022-09-15T05:55:41.215Z,71.49
2022-09-15T05:58:13.512Z,71.34
2022-09-15T06:00:45.709Z,71.17
2022-09-15T06:03:18.440Z,70.92
2022-09-15T06:05:50.496Z,70.91
2022-09-15T06:08:22.922Z,70.80
2022-09-15T06:10:57.760Z,70.60
2022-09-15T06:13:50.464Z,70.42
2022-09-15T06:16:32.284Z,70.45
2022-09-15T06:19:07.541Z,70.29
2022-09-15T06:21:40.464Z,70.35
2022-09-15T06:24:16.896Z,70.20
2022-09-15T06:26:49.288Z,70.06
2022-09-15T06:29:24.369Z,70.18
2022-09-15T06:32:07.560Z,69.97
2022-09-15T06:34:39.757Z,69.77
2022-09-15T06:37:14.246Z,69.73
2022-09-15T06:39:46.097Z,69.27
2022-09-15T06:42:17.999Z,69.07
2022-09-15T06:44:51.687Z,69.01
2022-09-15T06:47:23.930Z,69.06
2022-09-15T06:49:55.906Z,68.71
2022-09-15T06:52:27.665Z,68.68
2022-09-15T06:54:59.477Z,68.47
2022-09-15T06:57:31.281Z,68.37
2022-09-15T07:00:08.465Z,67.83
2022-09-15T07:02:41.085Z,67.56
2022-09-15T07:05:13.713Z,67.64
2022-09-15T07:07:45.556Z,66.97
2022-09-15T07:10:23.982Z,67.07
2022-09-15T07:12:55.897Z,67.18
2022-09-15T07:15:28.492Z,66.49
2022-09-15T07:18:01.433Z,65.54
2022-09-15T07:20:35.653Z,65.82
2022-09-15T07:23:07.397Z,64.88
2022-09-15T07:25:45.130Z,64.64
2022-09-15T07:28:17.429Z,64.05
2022-09-15T07:30:54.349Z,64.09
2022-09-15T07:33:26.075Z,63.70
2022-09-15T07:35:57.802Z,62.93
2022-09-15T07:38:29.482Z,63.62
2022-09-15T07:41:07.435Z,63.74
2022-09-15T07:43:39.293Z,63.52
2022-09-15T07:46:11.050Z,63.67
2022-09-15T07:48:44.296Z,63.94
2022-09-15T07:51:18.411Z,64.68
2022-09-15T07:53:50.719Z,64.29
2022-09-15T07:56:23.991Z,64.50
2022-09-15T07:58:55.861Z,63.58
2022-09-15T08:01:29.277Z,63.71
2022-09-15T08:04:01.162Z,62.53
2022-09-15T08:06:33.548Z,61.04
2022-09-15T08:09:05.922Z,60.96
2022-09-15T08:11:37.710Z,60.43
2022-09-15T08:14:09.618Z,61.05
2022-09-15T08:16:41.416Z,59.44
2022-09-15T08:19:14.347Z,59.02
2022-09-15T08:21:46.878Z,58.33
2022-09-15T08:24:18.581Z,59.13
2022-09-15T08:26:50.509Z,58.64
2022-09-15T08:29:23.013Z,58.61
2022-09-15T08:31:56.038Z,57.71
2022-09-15T08:34:30.042Z,56.93
2022-09-15T08:37:01.919Z,56.49
2022-09-15T08:39:33.626Z,57.21
2022-09-15T08:42:06.972Z,57.32
2022-09-15T08:44:43.099Z,57.06
2022-09-15T08:47:18.519Z,58.20
2022-09-15T08:50:00.073Z,57.99
2022-09-15T08:52:36.524Z,58.19
2022-09-15T08:55:14.562Z,57.74
2022-09-15T08:57:46.355Z,56.92
2022-09-15T09:00:20.384Z,57.40
2022-09-15T09:03:08.658Z,57.50
2022-09-15T09:05:55.240Z,56.93
2022-09-15T09:09:00.503Z,57.08
2022-09-15T09:11:46.435Z,55.37
2022-09-15T09:14:26.214Z,55.44
2022-09-15T09:17:11.917Z,54.24
2022-09-15T09:20:12.137Z,54.77
2022-09-15T09:22:51.756Z,53.52
2022-09-15T09:25:28.003Z,52.22
2022-09-15T09:28:02.934Z,52.69
2022-09-15T09:30:39.786Z,52.94
2022-09-15T09:33:21.265Z,52.56
2022-09-15T09:36:02.362Z,53.59
2022-09-15T09:38:38.991Z,53.34
2022-09-15T09:41:16.962Z,53.33
2022-09-15T09:44:06.500Z,52.86
2022-09-15T09:46:38.852Z,53.37
2022-09-15T09:49:18.249Z,53.95
2022-09-15T09:52:11.663Z,53.42
2022-09-15T09:55:23.184Z,53.23
2022-09-15T09:58:15.654Z,52.72
2022-09-15T10:00:47.679Z,53.14
2022-09-15T10:03:22.257Z,53.33
2022-09-15T10:06:08.852Z,52.99
2022-09-15T10:08:53.268Z,53.30
2022-09-15T10:11:42.126Z,52.72
2022-09-15T10:14:23.624Z,52.72
2022-09-15T10:17:08.388Z,52.65
2022-09-15T10:19:48.616Z,52.94
2022-09-15T10:22:29.723Z,52.95
2022-09-15T10:25:03.048Z,51.88
2022-09-15T10:27:36.793Z,52.71
2022-09-15T10:30:22.324Z,52.85
2022-09-15T10:32:54.126Z,53.41
2022-09-15T10:35:25.957Z,53.63
2022-09-15T10:38:06.017Z,53.24
2022-09-15T10:40:45.783Z,54.11
2022-09-15T10:43:32.801Z,53.93
2022-09-15T10:46:13.786Z,54.11
2022-09-15T10:49:05.233Z,54.26
2022-09-15T10:51:53.368Z,54.63
2022-09-15T10:54:46.412Z,54.50
2022-09-15T10:57:35.608Z,54.07
2022-09-15T11:00:12.043Z,52.72
2022-09-15T11:03:21.196Z,52.48
2022-09-15T11:06:01.294Z,52.84
2022-09-15T11:08:56.309Z,52.48
2022-09-15T11:11:36.050Z,52.98
2022-09-15T11:14:21.274Z,53.04
2022-09-15T11:17:10.201Z,51.74
2022-09-15T11:19:58.641Z,51.98
2022-09-15T11:22:34.409Z,50.37
2022-09-15T11:25:13.982Z,50.34
2022-09-15T11:27:50.263Z,50.51
2022-09-15T11:30:33.641Z,49.03
2022-09-15T11:33:12.779Z,48.69
2022-09-15T11:35:51.965Z,47.82
2022-09-15T11:38:42.950Z,47.83
2022-09-15T11:41:25.236Z,48.34
2022-09-15T11:44:16.744Z,48.55
2022-09-15T11:47:41.587Z,48.77
2022-09-15T11:50:27.691Z,48.12
2022-09-15T11:53:03.525Z,47.60
2022-09-15T11:55:43.224Z,47.34
2022-09-15T11:58:23.119Z,48.40
2022-09-15T12:00:57.825Z,46.71
2022-09-15T12:03:36.518Z,47.69
2022-09-15T12:06:13.688Z,47.87
2022-09-15T12:08:53.752Z,47.26
2022-09-15T12:11:28.367Z,46.25
2022-09-15T12:14:01.159Z,47.83
2022-09-15T12:16:35.105Z,47.46
2022-09-15T12:19:15.833Z,47.33
2022-09-15T12:21:58.032Z,48.00
2022-09-15T12:24:38.228Z,47.36
2022-09-15T12:27:16.414Z,48.09
2022-09-15T12:29:52.724Z,47.53
2022-09-15T12:32:27.745Z,48.06
2022-09-15T12:35:02.471Z,47.58
2022-09-15T12:37:40.916Z,47.50
2022-09-15T12:40:38.398Z,46.64
2022-09-15T12:43:23.758Z,46.56
2022-09-15T12:46:01.850Z,47.18
2022-09-15T12:48:36.720Z,46.67
2022-09-15T12:51:15.412Z,46.43
2022-09-15T12:53:55.535Z,46.05
2022-09-15T12:56:29.350Z,45.89
2022-09-15T12:59:09.044Z,46.62
2022-09-15T13:01:51.304Z,46.59
2022-09-15T13:04:53.075Z,46.30
2022-09-15T13:07:58.109Z,45.71
2022-09-15T13:10:42.728Z,46.64
2022-09-15T13:13:32.917Z,46.54
2022-09-15T13:16:11.557Z,46.47
2022-09-15T13:18:45.620Z,46.65
2022-09-15T13:21:22.880Z,46.68
2022-09-15T13:23:55.974Z,46.26
2022-09-15T13:26:30.446Z,46.71
2022-09-15T13:29:03.609Z,45.83
2022-09-15T13:31:45.416Z,46.35
2022-09-15T13:35:07.055Z,45.89
2022-09-15T13:38:12.167Z,46.48
2022-09-15T13:41:09.060Z,45.79
2022-09-15T13:43:57.407Z,46.02
2022-09-15T13:46:42.847Z,46.18
2022-09-15T13:49:46.712Z,46.16
2022-09-15T13:52:29.411Z,45.37
2022-09-15T13:55:21.315Z,45.15
2022-09-15T14:00:55.608Z,45.94
2022-09-15T14:03:37.244Z,45.06
2022-09-15T14:06:15.789Z,44.88
2022-09-15T14:08:51.323Z,44.84
2022-09-15T14:11:29.078Z,44.94
2022-09-15T14:14:01.569Z,43.94
2022-09-15T14:16:36.327Z,44.46
2022-09-15T14:19:29.590Z,44.91
2022-09-15T14:22:01.766Z,45.20
2022-09-15T14:24:34.847Z,45.02
2022-09-15T14:27:13.048Z,44.91
2022-09-15T14:29:45.365Z,45.09
2022-09-15T14:32:18.731Z,45.38
2022-09-15T14:34:51.975Z,45.46
2022-09-15T14:37:27.636Z,45.27
2022-09-15T14:40:01.495Z,45.17
2022-09-15T14:42:37.469Z,45.53
2022-09-15T14:48:09.657Z,45.02
2022-09-15T14:50:43.609Z,44.72
2022-09-15T14:53:20.496Z,44.33
2022-09-15T14:55:57.196Z,44.29
2022-09-15T14:58:33.556Z,44.63
2022-09-15T15:01:13.483Z,44.91
2022-09-15T15:03:54.761Z,44.65
2022-09-15T15:06:32.788Z,44.39
2022-09-15T15:09:08.314Z,44.68
2022-09-15T15:11:42.450Z,44.72
2022-09-15T15:14:16.582Z,44.50
2022-09-15T15:16:57.867Z,44.70
2022-09-15T15:19:41.802Z,45.03
2022-09-15T15:22:21.431Z,44.54
2022-09-15T15:24:54.750Z,45.17
2022-09-15T15:27:51.754Z,45.38
2022-09-15T15:30:47.122Z,45.25
2022-09-15T15:33:28.707Z,45.24
2022-09-15T15:36:11.927Z,45.02
2022-09-15T15:38:50.979Z,45.28
2022-09-15T15:41:25.221Z,45.23
2022-09-15T15:44:03.541Z,45.00
2022-09-15T15:46:56.264Z,45.24
2022-09-15T15:49:30.265Z,44.93
2022-09-15T15:52:03.175Z,44.98
2022-09-15T15:54:36.426Z,45.01
2022-09-15T15:57:25.258Z,44.88
2022-09-15T16:00:00.951Z,45.49
2022-09-15T16:02:33.162Z,45.60
2022-09-15T16:05:05.110Z,45.88
2022-09-15T16:07:36.955Z,45.96
2022-09-15T16:13:18.600Z,46.18
2022-09-15T16:15:51.535Z,46.28
2022-09-15T16:18:23.377Z,46.62
2022-09-15T16:20:57.218Z,46.74
2022-09-15T16:23:28.899Z,46.92
2022-09-15T16:26:02.571Z,46.51
2022-09-15T16:28:34.765Z,46.88
2022-09-15T16:31:07.477Z,46.97
2022-09-15T16:33:39.272Z,46.79
2022-09-15T16:36:14.554Z,46.95
2022-09-15T16:38:46.778Z,47.36
2022-09-15T16:41:21.914Z,47.48
2022-09-15T16:43:55.844Z,47.72
2022-09-15T16:46:28.265Z,47.86
2022-09-15T16:49:00.073Z,47.99
2022-09-15T16:51:32.814Z,48.00
2022-09-15T16:54:04.621Z,48.13
2022-09-15T16:56:36.406Z,48.33
2022-09-15T16:59:08.397Z,48.68
2022-09-15T17:01:41.044Z,48.42
2022-09-15T17:04:15.916Z,48.85
2022-09-15T17:06:47.882Z,49.17
2022-09-15T17:09:20.472Z,49.18
2022-09-15T17:11:53.463Z,49.46
2022-09-15T17:14:25.092Z,49.33
2022-09-15T17:16:57.017Z,49.66
2022-09-15T17:19:28.741Z,49.93
2022-09-15T17:22:01.429Z,50.03
2022-09-15T17:24:33.239Z,50.28
2022-09-15T17:27:05.190Z,50.35
2022-09-15T17:29:38.754Z,50.50
2022-09-15T17:32:11.056Z,50.61
2022-09-15T17:34:42.769Z,50.86
2022-09-15T17:37:14.765Z,50.97
2022-09-15T17:39:50.023Z,51.19
2022-09-15T17:42:22.714Z,51.39
2022-09-15T17:44:54.452Z,51.48
2022-09-15T17:47:26.253Z,51.95
2022-09-15T17:49:57.986Z,52.14
2022-09-15T17:52:29.751Z,52.23
2022-09-15T17:55:02.293Z,52.29
2022-09-15T17:57:34.149Z,52.37
2022-09-15T18:00:11.134Z,52.51
2022-09-15T18:02:44.436Z,52.59
2022-09-15T18:05:23.020Z,52.66
2022-09-15T18:07:57.195Z,52.70
2022-09-15T18:10:30.175Z,52.82
2022-09-15T18:13:02.475Z,53.08
2022-09-15T18:15:36.061Z,53.12
2022-09-15T18:18:14.269Z,53.17
2022-09-15T18:20:46.502Z,53.45
2022-09-15T18:23:20.825Z,53.17
2022-09-15T18:25:53.569Z,53.34
2022-09-15T18:28:25.594Z,53.51
2022-09-15T18:30:58.131Z,53.46
2022-09-15T18:33:32.100Z,53.72
2022-09-15T18:36:07.016Z,53.49
2022-09-15T18:38:39.020Z,53.76
2022-09-15T18:41:13.082Z,53.60
2022-09-15T18:43:49.209Z,53.93
2022-09-15T18:46:21.382Z,54.10
2022-09-15T18:48:53.245Z,53.98
2022-09-15T18:51:40.906Z,54.15
2022-09-15T18:54:16.671Z,54.26
2022-09-15T18:56:48.417Z,54.38
2022-09-15T18:59:20.455Z,54.32
2022-09-15T19:01:52.521Z,54.87
2022-09-15T19:04:28.394Z,55.61
2022-09-15T19:07:03.048Z,56.93
2022-09-15T19:09:35.710Z,58.49
2022-09-15T19:12:07.972Z,59.11
2022-09-15T19:14:46.032Z,59.41
2022-09-15T19:17:19.108Z,59.36
2022-09-15T19:19:51.284Z,59.55
2022-09-15T19:22:24.765Z,59.35
2022-09-15T19:24:57.123Z,59.94
2022-09-15T19:27:29.322Z,60.58
2022-09-15T19:30:01.553Z,60.42
2022-09-15T19:32:35.208Z,60.27
2022-09-15T19:35:09.597Z,60.41
2022-09-15T19:37:42.993Z,60.48
2022-09-15T19:40:25.802Z,60.92
2022-09-15T19:42:58.239Z,61.03
2022-09-15T19:45:31.423Z,61.25
2022-09-15T19:48:03.816Z,61.16
2022-09-15T19:50:37.349Z,61.20
2022-09-15T19:53:09.052Z,61.58
2022-09-15T19:55:40.868Z,61.73
2022-09-15T19:58:12.729Z,61.72
2022-09-15T20:00:46.301Z,61.77
2022-09-15T20:03:18.218Z,61.78
2022-09-15T20:05:54.270Z,62.08
2022-09-15T20:08:28.269Z,61.89
2022-09-15T20:11:02.111Z,62.19
2022-09-15T20:13:39.319Z,62.07
2022-09-15T20:16:12.757Z,62.30
2022-09-15T20:18:46.776Z,62.50
2022-09-15T20:21:45.793Z,62.54
2022-09-15T20:24:14.605Z,62.20
2022-09-15T20:26:55.912Z,62.64
2022-09-15T20:29:28.158Z,62.36
2022-09-15T20:32:01.563Z,62.41
2022-09-15T20:34:33.536Z,62.42
2022-09-15T20:37:05.589Z,62.46
2022-09-15T20:39:38.032Z,62.57
2022-09-15T20:42:11.472Z,62.79
2022-09-15T20:44:43.477Z,62.72
2022-09-15T20:47:16.105Z,62.63
2022-09-15T20:49:48.048Z,62.64
2022-09-15T20:52:20.083Z,62.58
2022-09-15T20:54:52.084Z,62.65
2022-09-15T20:57:24.074Z,62.45
2022-09-15T20:59:56.027Z,62.59
2022-09-15T21:02:28.985Z,62.63
2022-09-15T21:05:00.977Z,62.41
2022-09-15T21:07:33.070Z,62.45
2022-09-15T21:10:05.132Z,62.38
2022-09-15T21:12:40.971Z,62.41
2022-09-15T21:15:13.829Z,62.40
2022-09-15T21:17:46.141Z,62.37
2022-09-15T21:20:18.498Z,62.51
2022-09-15T21:22:59.368Z,62.47
2022-09-15T21:25:31.290Z,62.37
2022-09-15T21:28:03.493Z,62.37
2022-09-15T21:30:35.540Z,62.64
2022-09-15T21:33:09.215Z,62.66
2022-09-15T21:35:42.094Z,62.91
2022-09-15T21:38:14.991Z,62.83
2022-09-15T21:40:50.859Z,63.22
2022-09-15T21:43:22.887Z,63.07
2022-09-15T21:45:59.126Z,63.28
2022-09-15T21:48:32.358Z,63.15
2022-09-15T21:51:05.875Z,63.34
2022-09-15T21:53:38.849Z,63.41
2022-09-15T21:56:12.740Z,63.70
2022-09-15T21:58:45.317Z,63.81
2022-09-15T22:01:19.820Z,63.73
2022-09-15T22:03:54.385Z,63.81
2022-09-15T22:06:30.305Z,63.84
2022-09-15T22:09:03.482Z,64.05
2022-09-15T22:11:36.397Z,64.18
2022-09-15T22:14:10.422Z,64.12
2022-09-15T22:16:43.611Z,64.25
2022-09-15T22:19:15.779Z,63.96
2022-09-15T22:21:47.730Z,64.52
2022-09-15T22:24:20.539Z,64.51
2022-09-15T22:26:52.445Z,64.44
2022-09-15T22:29:24.569Z,64.69
2022-09-15T22:31:56.544Z,64.43
2022-09-15T22:34:29.314Z,64.62
2022-09-15T22:37:01.337Z,64.51
2022-09-15T22:39:57.352Z,64.77
2022-09-15T22:42:25.600Z,64.88
2022-09-15T22:44:57.726Z,64.75
2022-09-15T22:47:29.678Z,64.92
2022-09-15T22:50:01.901Z,64.75
2022-09-15T22:52:33.872Z,64.90
2022-09-15T22:55:07.685Z,64.92
2022-09-15T22:57:39.777Z,65.15
2022-09-15T23:00:20.697Z,64.95
2022-09-15T23:02:52.600Z,64.96
2022-09-15T23:05:24.428Z,65.12
2022-09-15T23:07:56.179Z,65.14
2022-09-15T23:10:30.712Z,65.16
2022-09-15T23:13:02.473Z,65.24
2022-09-15T23:15:37.562Z,65.33
2022-09-15T23:18:09.212Z,65.61
2022-09-15T23:20:45.816Z,65.17
2022-09-15T23:23:17.589Z,65.48
2022-09-15T23:25:49.312Z,65.50
2022-09-15T23:28:21.109Z,65.53
2022-09-15T23:30:58.400Z,65.71
2022-09-15T23:33:35.500Z,65.59
2022-09-15T23:36:10.340Z,65.68
2022-09-15T23:38:44.397Z,66.10
2022-09-15T23:41:25.245Z,66.12
2022-09-15T23:43:57.948Z,66.21
2022-09-15T23:46:30.558Z,66.30
2022-09-15T23:49:02.807Z,66.78
2022-09-15T23:51:36.342Z,66.81
2022-09-15T23:54:08.217Z,66.98
2022-09-15T23:56:40.004Z,67.06
2022-09-15T23:59:12.069Z,67.36
